METAR Formatted Surface Weather Observation
Issued by NWS

Home | Current Version | Previous Version | Text Only | Print | Product List | Glossary On
Versions: 1 2 3 4 5 6 7 8 9 10 11 12 13 14 15 16 17 18 19 20 21 22 23 24 25 26 27 28
086
SAUS42 KTAE 310001
MTR1J0
METAR K1J0 302358Z AUTO 22004KT 10SM BKN120 26/18 A2994 RMK AO2
TSE01 SLP097 T02560183 10344 20256 53009 $



USA.gov is the U.S. government's official web portal to all federal, state and local government web resources and services.